Terminal Aerodrome Forecast
Issued by NWS

Home | Current Version | Previous Version | Graphics & Text | Print | Product List | Glossary On
Versions: 1 2 3 4 5 6 7 8 9 10 11 12 13
104
FTUS41 KCLE 212343
TAFFDY
TAF
KFDY 212343Z 2200/2224 02008KT P6SM BKN120 OVC250
     FM220200 VRB04KT P6SM FEW100 SCT250
     FM221200 33008KT P6SM BKN080 OVC120
     FM221800 36012G20KT P6SM BKN035
     FM222300 01010KT P6SM FEW045=

USA.gov is the U.S. government's official web portal to all federal, state and local government web resources and services.